Aérodrome :
LOGIN :

S'inscrire | Disclaimer

   EN    FR    IT 

 










Légende :    VFR   VFR Marginal   IFR   IFR Intensif   IFR Très Intensif
Visi : 
Plafond : 
>= 8 km
>= 3000ft
5 à 8 km
1000 à 3000 ft
1500m à 5 km
500 à 1000 ft
800 à 1500m
200 à 500 ft
< 800m
< 200 ft
Symboles :   Orages  Brouillard  Fortes neiges  Fortes précipitations  Vent > 20 kt
SIGMETs :   Divers  Orages  Givrage  Turbulence  Onde Orograph.  Cendres Volcan.







- Altitude de l'aérodrome : 353 ft
- Code IATA : LIN


LIML - Milano Linate

DERNIER METAR :
  • 201420Z VRB02KT CAVOK 23/12 Q1022 NOSIG

METARs EXPIRÉS :
  • 201350Z VRB02KT CAVOK 23/11 Q1022 NOSIG
  • 201320Z 15003KT 090V190 CAVOK 23/11 Q1022 NOSIG
  • 201250Z VRB03KT 8000 NSC 22/12 Q1023 NOSIG
  • 201220Z 17004KT 090V220 7000 NSC 22/11 Q1023 NOSIG
  • 201150Z 13005KT 090V200 8000 NSC 22/12 Q1024 NOSIG
  • 201120Z 14004KT 090V200 7000 NSC 22/12 Q1024 NOSIG

TAF TAF LIML
Valide du 20 à 12h jusqu'au 21 à 12h UTC


201100Z 2012/2112 VRB05KT 7000 NSC
TEMPO 2100/2107 3000 BR
TEMPO 2103/2106 0800 BCFG
Pas de NOTAMs connus pour ce terrain.
1 SIGMET publié pour la FIR Milano (LIMM) :
 
Turbulence forte
LIMM SIGMET 1 VALID 201430/201730 LIIP
LIMM MILANO FIR SEV TURB FCST NW OF LINE N4402 E00659 - N4648 E01234 FL250/350 STNR NC=



MET'MAP, la Météo Aéronautique d'un coup d'oeil ! - Copyright ORBIFLY Décembre 2007 - Disclaimer

ORBIFLY MET'MAP TEAM :

Programmation & Développement : Alexandra Zaïnal
Conception & Développement : Baudouin d'Aumeries
Co-Programmation & Développement : Marc-Olivier Méhu
Soutien technique & logistique : Manuel Goepfert

Contact : metmap@orbifly.com




SOURCES & CREDITS :

   NOAA